Time;durP1;ratioP1;P1;durP2;ratioP2;P2;SDS_P1;SDS_P2;PMS_P1;PMS_P2;Temp;Humidity;BMP_temperature;BMP_pressure;BME280_temperature;BME280_humidity;BME280_pressure;Samples;Min_cycle;Max_cycle;Signal;HPM_P1;HPM_P2
2022/04/08 00:01:15;;;;;;;0.85;0.85;;;7.90;99.90;;;;;;4426399;32;20094;-71
2022/04/08 00:03:41;;;;;;;0.40;0.40;;;7.80;99.90;;;;;;4427691;32;20116;-70
2022/04/08 00:06:08;;;;;;;0.40;0.40;;;7.90;99.90;;;;;;4426197;32;20085;-71
2022/04/08 00:08:34;;;;;;;0.30;0.30;;;8.00;99.90;;;;;;4423080;32;20070;-70
2022/04/08 00:10:59;;;;;;;0.30;0.30;;;8.00;99.90;;;;;;4424259;32;20065;-72
2022/04/08 00:13:25;;;;;;;0.30;0.30;;;8.00;99.90;;;;;;4426372;32;20086;-72
2022/04/08 00:15:50;;;;;;;2.10;0.57;;;8.00;99.90;;;;;;4426530;32;20077;-70
2022/04/08 00:18:16;;;;;;;0.30;0.30;;;8.00;99.90;;;;;;4426884;32;20090;-72
2022/04/08 00:20:42;;;;;;;0.35;0.35;;;8.00;99.90;;;;;;4424123;32;20062;-72
2022/04/08 00:23:07;;;;;;;0.37;0.37;;;7.90;99.90;;;;;;4426665;32;20073;-71
2022/04/08 00:25:33;;;;;;;0.30;0.30;;;7.80;99.90;;;;;;4424472;32;20077;-72
2022/04/08 00:27:58;;;;;;;0.30;0.30;;;7.70;99.90;;;;;;4425566;32;20113;-71
2022/04/08 00:30:24;;;;;;;0.40;0.40;;;7.70;99.90;;;;;;4425711;32;20077;-72
2022/04/08 00:32:51;;;;;;;0.60;0.60;;;7.70;99.90;;;;;;4424900;32;20062;-72
2022/04/08 00:35:16;;;;;;;0.40;0.40;;;7.70;99.90;;;;;;4425576;32;20425;-72
2022/04/08 00:37:42;;;;;;;0.40;0.40;;;7.80;99.90;;;;;;4427868;32;20084;-72
2022/04/08 00:40:09;;;;;;;0.30;0.30;;;7.80;99.90;;;;;;4426892;32;20073;-72
2022/04/08 00:42:36;;;;;;;0.35;0.35;;;7.90;99.90;;;;;;4425975;32;20447;-72
2022/04/08 00:45:03;;;;;;;0.30;0.30;;;7.90;99.90;;;;;;4424837;32;20120;-71
2022/04/08 00:47:28;;;;;;;0.75;0.75;;;8.00;99.90;;;;;;4426626;32;20062;-71
2022/04/08 00:49:54;;;;;;;6.12;0.50;;;8.00;99.90;;;;;;4426008;32;20069;-72
2022/04/08 00:52:20;;;;;;;0.35;0.35;;;8.00;99.90;;;;;;4424637;32;20139;-72
2022/04/08 00:54:48;;;;;;;0.30;0.30;;;8.00;99.90;;;;;;4424177;32;20077;-72
2022/04/08 00:57:14;;;;;;;0.30;0.30;;;8.00;99.90;;;;;;4424749;32;20539;-72
2022/04/08 00:59:40;;;;;;;0.75;0.68;;;8.00;99.90;;;;;;4425705;32;20125;-71
2022/04/08 01:02:06;;;;;;;0.25;0.25;;;7.90;99.90;;;;;;4426748;32;20455;-71
2022/04/08 01:04:31;;;;;;;0.30;0.30;;;7.90;99.90;;;;;;4424575;32;20076;-71
2022/04/08 01:06:57;;;;;;;0.32;0.32;;;7.80;99.90;;;;;;4428288;32;20062;-71
2022/04/08 01:09:23;;;;;;;0.40;0.40;;;7.80;99.90;;;;;;4426464;32;20116;-71
2022/04/08 01:11:48;;;;;;;0.50;0.50;;;7.80;99.90;;;;;;4425034;32;20065;-71
2022/04/08 01:14:16;;;;;;;0.73;0.55;;;7.80;99.90;;;;;;4425750;32;20093;-71
2022/04/08 01:16:42;;;;;;;0.43;0.43;;;7.80;99.90;;;;;;4425349;32;20073;-71
2022/04/08 01:19:07;;;;;;;0.35;0.32;;;7.80;99.90;;;;;;4425343;32;20082;-71
2022/04/08 01:21:33;;;;;;;0.30;0.30;;;7.80;99.90;;;;;;4425880;32;20057;-71
2022/04/08 01:24:00;;;;;;;0.30;0.30;;;7.70;99.90;;;;;;4425147;32;20507;-71
2022/04/08 01:26:26;;;;;;;0.30;0.30;;;7.70;99.90;;;;;;4424111;32;20497;-71
2022/04/08 01:28:53;;;;;;;0.30;0.30;;;7.60;99.90;;;;;;4425458;32;20073;-71
2022/04/08 01:31:19;;;;;;;5.72;0.57;;;7.60;99.90;;;;;;4425403;32;20206;-71
2022/04/08 01:33:45;;;;;;;4.20;0.95;;;7.60;99.90;;;;;;4425258;32;20057;-71
2022/04/08 01:36:10;;;;;;;0.30;0.30;;;7.60;99.90;;;;;;4426510;32;20054;-71
2022/04/08 01:38:36;;;;;;;0.30;0.30;;;7.60;99.90;;;;;;4425388;32;20073;-72
2022/04/08 01:41:02;;;;;;;0.22;0.22;;;7.60;99.90;;;;;;4422755;32;20077;-71
2022/04/08 01:43:28;;;;;;;0.60;0.60;;;7.60;99.90;;;;;;4423721;32;20077;-71
2022/04/08 01:45:53;;;;;;;0.40;0.40;;;7.50;99.90;;;;;;4425313;32;20360;-71
2022/04/08 01:48:19;;;;;;;0.40;0.40;;;7.50;99.90;;;;;;4424423;32;20073;-71
2022/04/08 01:50:45;;;;;;;0.30;0.30;;;7.50;99.90;;;;;;4425162;32;20127;-71
2022/04/08 01:53:10;;;;;;;0.40;0.40;;;7.50;99.90;;;;;;4423044;32;20057;-71
2022/04/08 01:55:36;;;;;;;0.30;0.30;;;7.50;99.90;;;;;;4423474;32;20528;-71
2022/04/08 01:58:02;;;;;;;0.80;0.80;;;7.50;99.90;;;;;;4422422;32;20073;-71
2022/04/08 02:00:29;;;;;;;0.45;0.40;;;7.40;99.90;;;;;;4425025;32;20060;-71
2022/04/08 02:02:54;;;;;;;0.30;0.30;;;7.40;99.90;;;;;;4424781;32;20116;-71
2022/04/08 02:05:20;;;;;;;0.30;0.30;;;7.50;99.90;;;;;;4426040;32;20138;-71
2022/04/08 02:07:45;;;;;;;0.40;0.40;;;7.50;99.90;;;;;;4424060;32;20093;-71
2022/04/08 02:10:11;;;;;;;0.30;0.30;;;7.50;99.90;;;;;;4421955;32;20117;-71
2022/04/08 02:12:36;;;;;;;0.30;0.30;;;7.40;99.90;;;;;;4425284;32;20929;-71
2022/04/08 02:15:02;;;;;;;0.40;0.40;;;7.40;99.90;;;;;;4424159;32;20097;-71
2022/04/08 02:17:30;;;;;;;0.20;0.20;;;7.40;99.90;;;;;;4425032;32;20061;-72
2022/04/08 02:19:56;;;;;;;0.20;0.20;;;7.50;99.90;;;;;;4426010;32;20221;-72
2022/04/08 02:22:24;;;;;;;1.15;1.05;;;7.50;99.90;;;;;;4423355;32;20076;-72
2022/04/08 02:24:50;;;;;;;3.75;1.25;;;7.60;99.90;;;;;;4425266;32;20074;-72
2022/04/08 02:27:16;;;;;;;0.30;0.30;;;7.70;99.90;;;;;;4425032;32;20516;-72
2022/04/08 02:29:42;;;;;;;0.40;0.40;;;7.70;99.90;;;;;;4424596;32;20181;-72
2022/04/08 02:32:10;;;;;;;0.20;0.20;;;7.60;99.90;;;;;;4425568;32;20144;-72
2022/04/08 02:34:37;;;;;;;0.30;0.30;;;7.60;99.90;;;;;;4421630;32;20606;-72
2022/04/08 02:37:04;;;;;;;0.20;0.20;;;7.60;99.90;;;;;;4424267;32;20077;-71
2022/04/08 02:39:30;;;;;;;0.30;0.30;;;7.60;99.90;;;;;;4426665;32;20064;-71
2022/04/08 02:41:57;;;;;;;0.93;0.65;;;7.70;99.90;;;;;;4422502;32;20088;-71
2022/04/08 02:44:22;;;;;;;0.73;0.73;;;7.70;99.90;;;;;;4424064;32;20418;-71
2022/04/08 02:46:48;;;;;;;0.45;0.45;;;7.70;99.90;;;;;;4425455;32;20184;-71
2022/04/08 02:49:13;;;;;;;0.32;0.32;;;7.70;99.90;;;;;;4426656;32;20512;-71
2022/04/08 02:51:39;;;;;;;0.65;0.50;;;7.70;99.90;;;;;;4425394;32;20072;-71
2022/04/08 02:54:04;;;;;;;0.60;0.60;;;7.70;99.90;;;;;;4425069;32;20062;-71
2022/04/08 02:56:29;;;;;;;0.20;0.20;;;7.70;99.90;;;;;;4423534;32;20082;-72
2022/04/08 02:58:57;;;;;;;2.42;0.75;;;7.70;99.90;;;;;;4424843;32;20077;-71
2022/04/08 03:01:23;;;;;;;0.25;0.25;;;7.70;99.90;;;;;;4425723;32;20060;-72
2022/04/08 03:03:48;;;;;;;0.30;0.30;;;7.70;99.90;;;;;;4424080;32;20085;-71
2022/04/08 03:06:14;;;;;;;0.52;0.52;;;7.80;99.90;;;;;;4423829;32;20097;-70
2022/04/08 03:08:39;;;;;;;0.40;0.40;;;7.80;99.90;;;;;;4423444;32;20061;-71
2022/04/08 03:11:06;;;;;;;0.40;0.40;;;7.70;99.90;;;;;;4422818;32;20109;-71
2022/04/08 03:13:32;;;;;;;0.35;0.35;;;7.70;99.90;;;;;;4425225;32;20085;-71
2022/04/08 03:15:58;;;;;;;0.30;0.30;;;7.70;99.90;;;;;;4425237;32;20073;-72
2022/04/08 03:18:23;;;;;;;0.40;0.40;;;7.70;99.90;;;;;;4426243;32;20474;-71
2022/04/08 03:20:49;;;;;;;0.30;0.30;;;7.70;99.90;;;;;;4426206;32;20089;-71
2022/04/08 03:23:15;;;;;;;0.52;0.52;;;7.70;99.90;;;;;;4424984;32;20525;-70
2022/04/08 03:25:40;;;;;;;0.30;0.30;;;7.70;99.90;;;;;;4423103;32;20081;-70
2022/04/08 03:28:08;;;;;;;0.30;0.30;;;7.60;99.90;;;;;;4425097;32;20094;-70
2022/04/08 03:30:33;;;;;;;0.77;0.77;;;7.60;99.90;;;;;;4423977;32;20074;-71
2022/04/08 03:32:59;;;;;;;0.30;0.30;;;7.60;99.90;;;;;;4422311;32;20085;-71
2022/04/08 03:35:24;;;;;;;0.30;0.30;;;7.50;99.90;;;;;;4424970;32;20085;-70
2022/04/08 03:37:50;;;;;;;0.30;0.30;;;7.40;99.90;;;;;;4423858;32;20127;-71
2022/04/08 03:40:16;;;;;;;16.77;1.65;;;7.40;99.90;;;;;;4422040;32;20524;-70
2022/04/08 03:42:41;;;;;;;0.40;0.40;;;7.30;99.90;;;;;;4422005;32;20062;-71
2022/04/08 03:45:07;;;;;;;0.30;0.30;;;7.30;99.90;;;;;;4424059;32;20070;-70
2022/04/08 03:47:33;;;;;;;0.40;0.40;;;7.20;99.90;;;;;;4425966;32;20086;-70
2022/04/08 03:49:58;;;;;;;0.30;0.30;;;7.30;99.90;;;;;;4423708;32;20483;-71
2022/04/08 03:52:29;;;;;;;0.30;0.30;;;7.30;99.90;;;;;;4425789;32;20069;-71
2022/04/08 03:54:55;;;;;;;9.02;0.90;;;7.30;99.90;;;;;;4423324;32;20087;-71
2022/04/08 03:57:20;;;;;;;0.52;0.52;;;7.30;99.90;;;;;;4422163;32;20073;-71
2022/04/08 03:59:47;;;;;;;0.30;0.30;;;7.30;99.90;;;;;;4424703;32;20135;-70
2022/04/08 04:02:12;;;;;;;0.52;0.52;;;7.30;99.90;;;;;;4423645;32;20390;-70
2022/04/08 04:04:38;;;;;;;0.20;0.20;;;7.40;99.90;;;;;;4423892;32;20094;-70
2022/04/08 04:07:04;;;;;;;0.30;0.30;;;7.30;99.90;;;;;;4424565;32;20093;-71
2022/04/08 04:09:29;;;;;;;1.65;0.62;;;7.30;99.90;;;;;;4424384;32;20475;-71
2022/04/08 04:11:55;;;;;;;0.30;0.30;;;7.20;99.90;;;;;;4419807;32;20077;-72
2022/04/08 04:14:21;;;;;;;0.40;0.40;;;7.20;99.90;;;;;;4421325;32;20073;-71
2022/04/08 04:16:47;;;;;;;0.50;0.50;;;7.20;99.90;;;;;;4420749;32;20103;-71
2022/04/08 04:19:12;;;;;;;0.32;0.32;;;7.00;99.90;;;;;;4425825;32;20077;-72
2022/04/08 04:21:38;;;;;;;0.50;0.50;;;7.00;99.90;;;;;;4409991;32;20275;-73
2022/04/08 04:24:04;;;;;;;0.40;0.40;;;6.90;99.90;;;;;;4380376;32;20399;-72
2022/04/08 04:26:29;;;;;;;0.82;0.60;;;6.80;99.90;;;;;;4398522;32;20093;-72
2022/04/08 04:28:55;;;;;;;1.20;0.73;;;6.70;99.90;;;;;;4399269;32;20623;-72
2022/04/08 04:31:20;;;;;;;0.30;0.30;;;6.70;99.90;;;;;;4411923;32;20069;-72
2022/04/08 04:33:46;;;;;;;0.30;0.30;;;6.60;99.90;;;;;;4427537;32;20093;-72
2022/04/08 04:36:12;;;;;;;0.30;0.30;;;6.50;99.90;;;;;;4426931;32;20046;-72
2022/04/08 04:38:37;;;;;;;0.20;0.20;;;6.50;99.90;;;;;;4427427;32;20068;-72
2022/04/08 04:41:03;;;;;;;0.22;0.22;;;6.50;99.90;;;;;;4423354;32;20549;-71
2022/04/08 04:43:28;;;;;;;0.20;0.20;;;6.50;99.90;;;;;;4427434;32;20097;-72
2022/04/08 04:45:55;;;;;;;0.25;0.25;;;6.50;99.90;;;;;;4425248;32;20071;-71
2022/04/08 04:48:22;;;;;;;0.30;0.30;;;6.50;99.90;;;;;;4427146;32;20128;-71
2022/04/08 04:50:48;;;;;;;0.37;0.37;;;6.50;99.90;;;;;;4425377;32;20065;-72
2022/04/08 04:53:13;;;;;;;0.30;0.30;;;6.40;99.90;;;;;;4406691;32;20065;-71
2022/04/08 04:55:39;;;;;;;0.37;0.37;;;6.50;99.90;;;;;;4415005;32;20132;-71
2022/04/08 04:58:04;;;;;;;0.30;0.30;;;6.40;99.90;;;;;;4425588;32;20085;-71
2022/04/08 05:00:30;;;;;;;0.37;0.37;;;6.50;99.90;;;;;;4419463;32;20072;-73
2022/04/08 05:02:55;;;;;;;0.30;0.30;;;6.40;99.90;;;;;;4399545;32;20601;-72
2022/04/08 05:05:21;;;;;;;0.25;0.25;;;6.40;99.90;;;;;;4387574;32;20077;-72
2022/04/08 05:07:46;;;;;;;2.30;0.68;;;6.40;99.90;;;;;;4390236;32;20061;-71
2022/04/08 05:10:12;;;;;;;0.90;0.77;;;6.50;99.90;;;;;;4387500;32;20456;-72
2022/04/08 05:12:38;;;;;;;19.02;1.02;;;6.50;99.90;;;;;;4399689;32;20082;-73
2022/04/08 05:15:06;;;;;;;0.30;0.30;;;6.60;99.90;;;;;;4416090;32;20086;-71
2022/04/08 05:17:35;;;;;;;0.30;0.30;;;6.60;99.90;;;;;;4377202;32;20085;-72
2022/04/08 05:20:06;;;;;;;2.65;1.40;;;6.50;99.90;;;;;;4340338;32;20236;-71
2022/04/08 05:22:33;;;;;;;0.32;0.32;;;6.50;99.90;;;;;;4389339;32;20538;-71
2022/04/08 05:24:59;;;;;;;1.10;0.90;;;6.50;99.90;;;;;;4341647;32;20053;-72
2022/04/08 05:27:25;;;;;;;0.30;0.30;;;6.40;99.90;;;;;;4408481;32;20064;-71
2022/04/08 05:29:51;;;;;;;1.37;0.73;;;6.40;99.90;;;;;;4373944;32;20114;-73
2022/04/08 05:32:17;;;;;;;0.20;0.20;;;6.40;99.90;;;;;;4335929;32;20391;-70
2022/04/08 05:34:42;;;;;;;0.35;0.35;;;6.40;99.90;;;;;;4367865;32;20223;-71
2022/04/08 05:37:08;;;;;;;0.20;0.20;;;6.50;99.90;;;;;;4374859;32;20069;-72
2022/04/08 05:39:34;;;;;;;0.30;0.30;;;6.50;99.90;;;;;;4386441;32;20062;-70
2022/04/08 05:42:00;;;;;;;0.30;0.30;;;6.50;99.90;;;;;;4414971;32;20124;-71
2022/04/08 05:44:26;;;;;;;0.30;0.30;;;6.50;99.90;;;;;;4410116;32;20074;-71
2022/04/08 05:46:51;;;;;;;0.30;0.30;;;6.50;99.90;;;;;;4411888;32;20085;-71
2022/04/08 05:49:17;;;;;;;0.47;0.47;;;6.50;99.90;;;;;;4397939;32;20068;-72
2022/04/08 05:51:45;;;;;;;0.30;0.30;;;6.50;99.90;;;;;;4415436;32;20061;-71
2022/04/08 05:54:11;;;;;;;0.30;0.30;;;6.50;99.90;;;;;;4415392;32;20070;-72
2022/04/08 05:56:36;;;;;;;0.28;0.28;;;6.50;99.90;;;;;;4422917;32;20061;-71
2022/04/08 05:59:02;;;;;;;0.30;0.30;;;6.50;99.90;;;;;;4415843;32;20559;-71
2022/04/08 06:01:27;;;;;;;0.30;0.30;;;6.60;99.90;;;;;;4399659;32;20065;-71
2022/04/08 06:03:54;;;;;;;0.30;0.30;;;6.60;99.90;;;;;;4396552;32;20061;-71
2022/04/08 06:06:20;;;;;;;0.30;0.30;;;6.70;99.90;;;;;;4414305;32;20113;-70
2022/04/08 06:08:46;;;;;;;0.43;0.43;;;6.60;99.90;;;;;;4421340;32;20141;-70
2022/04/08 06:11:11;;;;;;;1.98;0.70;;;6.60;99.90;;;;;;4421508;32;20073;-71
2022/04/08 06:13:37;;;;;;;3.40;0.95;;;6.60;99.90;;;;;;4420303;32;20086;-70
2022/04/08 06:16:03;;;;;;;0.30;0.30;;;6.50;99.90;;;;;;4418874;32;20130;-70
2022/04/08 06:18:28;;;;;;;0.70;0.70;;;6.60;99.90;;;;;;4400556;32;20056;-70
2022/04/08 06:20:54;;;;;;;0.30;0.30;;;6.60;99.90;;;;;;4420795;32;20132;-70
2022/04/08 06:23:19;;;;;;;0.40;0.40;;;6.60;99.90;;;;;;4417415;32;20325;-70
2022/04/08 06:25:45;;;;;;;0.30;0.30;;;6.70;99.90;;;;;;4414701;32;20746;-70
2022/04/08 06:28:11;;;;;;;0.73;0.70;;;6.80;99.90;;;;;;4415509;32;20136;-70
2022/04/08 06:30:39;;;;;;;0.40;0.40;;;6.80;99.90;;;;;;4396923;32;20093;-70
2022/04/08 06:33:07;;;;;;;0.37;0.37;;;6.90;99.90;;;;;;4394573;32;20085;-69
2022/04/08 06:35:33;;;;;;;0.28;0.28;;;6.90;99.90;;;;;;4414714;32;20089;-71
2022/04/08 06:38:05;;;;;;;0.37;0.37;;;6.90;99.90;;;;;;4419129;32;20371;-69
2022/04/08 06:40:35;;;;;;;0.85;0.57;;;6.90;99.90;;;;;;4416489;32;20320;-68
2022/04/08 06:43:01;;;;;;;0.50;0.50;;;6.90;99.90;;;;;;4412720;32;20094;-69
2022/04/08 06:45:27;;;;;;;1.02;0.95;;;7.00;99.90;;;;;;4415623;32;20306;-69
2022/04/08 06:47:53;;;;;;;0.30;0.30;;;7.10;99.90;;;;;;4405451;32;20245;-68
2022/04/08 06:50:19;;;;;;;0.30;0.30;;;7.00;99.90;;;;;;4411183;32;20074;-69
2022/04/08 06:52:45;;;;;;;0.30;0.30;;;6.90;99.90;;;;;;4416633;32;20073;-69
2022/04/08 06:55:10;;;;;;;0.30;0.30;;;7.00;99.90;;;;;;4416602;32;20143;-68
2022/04/08 06:57:36;;;;;;;0.30;0.30;;;7.10;99.90;;;;;;4419507;32;20081;-68
2022/04/08 07:00:06;;;;;;;0.30;0.30;;;6.60;99.90;;;;;;4401223;32;20261;-68
2022/04/08 07:02:32;;;;;;;0.40;0.40;;;6.30;99.90;;;;;;4394229;32;20195;-68
2022/04/08 07:04:57;;;;;;;1.95;0.68;;;6.00;99.90;;;;;;4408778;32;20596;-68
2022/04/08 07:07:35;;;;;;;0.30;0.30;;;5.50;99.90;;;;;;4413778;32;20314;-68
2022/04/08 07:10:00;;;;;;;0.30;0.30;;;5.20;99.90;;;;;;4415501;32;20635;-68
2022/04/08 07:12:27;;;;;;;0.22;0.22;;;4.90;99.90;;;;;;4406737;32;20066;-68
2022/04/08 07:14:54;;;;;;;0.40;0.40;;;4.70;99.90;;;;;;4413772;32;20504;-69
2022/04/08 07:17:27;;;;;;;0.30;0.30;;;4.50;99.90;;;;;;4411512;32;20061;-69
2022/04/08 07:19:52;;;;;;;0.70;0.70;;;4.50;99.90;;;;;;4402565;32;20069;-69
2022/04/08 07:22:17;;;;;;;0.30;0.30;;;4.50;99.90;;;;;;4417332;32;20247;-70
2022/04/08 07:24:43;;;;;;;0.40;0.40;;;4.60;99.90;;;;;;4412629;32;20177;-71
2022/04/08 07:27:09;;;;;;;0.30;0.30;;;4.60;99.90;;;;;;4421312;32;20093;-70
2022/04/08 07:29:36;;;;;;;0.40;0.40;;;4.60;99.90;;;;;;4409077;32;20106;-68
2022/04/08 07:32:01;;;;;;;0.30;0.30;;;4.70;99.90;;;;;;4399472;32;20190;-69
2022/04/08 07:34:27;;;;;;;0.30;0.30;;;4.80;99.90;;;;;;4405426;32;20086;-70
2022/04/08 07:36:52;;;;;;;2.75;1.17;;;4.90;99.90;;;;;;4413441;32;104820;-69
2022/04/08 07:39:19;;;;;;;0.25;0.25;;;5.00;99.90;;;;;;4418771;32;20114;-70
2022/04/08 07:41:44;;;;;;;0.47;0.47;;;5.00;99.90;;;;;;4414382;32;20069;-69
2022/04/08 07:44:10;;;;;;;0.30;0.30;;;5.20;99.90;;;;;;4415659;32;20569;-68
2022/04/08 07:46:35;;;;;;;0.30;0.30;;;5.40;99.90;;;;;;4416404;32;20093;-69
2022/04/08 07:49:01;;;;;;;1.30;1.20;;;5.40;99.90;;;;;;4397586;32;20094;-70
2022/04/08 07:51:26;;;;;;;0.30;0.30;;;5.60;99.90;;;;;;4421083;32;20092;-70
2022/04/08 07:53:51;;;;;;;0.30;0.30;;;5.60;99.90;;;;;;4406954;32;20164;-68
2022/04/08 07:56:17;;;;;;;0.30;0.30;;;5.70;99.90;;;;;;4418542;32;20585;-69
2022/04/08 07:58:45;;;;;;;0.30;0.30;;;5.70;99.90;;;;;;4416780;32;20607;-69
2022/04/08 08:01:11;;;;;;;0.32;0.32;;;5.80;99.90;;;;;;4402667;32;20061;-69
2022/04/08 08:03:36;;;;;;;0.40;0.40;;;6.00;99.90;;;;;;4400034;32;20211;-68
2022/04/08 08:06:03;;;;;;;0.30;0.30;;;6.20;99.90;;;;;;4417045;32;20392;-69
2022/04/08 08:08:29;;;;;;;0.55;0.55;;;6.40;99.90;;;;;;4421758;32;20069;-69
2022/04/08 08:10:55;;;;;;;1.85;1.27;;;6.40;99.90;;;;;;4418269;32;20434;-69
2022/04/08 08:13:21;;;;;;;0.40;0.40;;;6.50;99.90;;;;;;4414870;32;20081;-69
2022/04/08 08:15:47;;;;;;;0.57;0.57;;;6.60;99.90;;;;;;4414003;32;20208;-68
2022/04/08 08:18:12;;;;;;;0.30;0.30;;;6.60;99.90;;;;;;4401007;32;20295;-68
2022/04/08 08:20:38;;;;;;;1.12;0.52;;;6.70;99.90;;;;;;4414470;32;20156;-69
2022/04/08 08:23:06;;;;;;;3.17;1.00;;;6.80;99.90;;;;;;4410342;32;20120;-69
2022/04/08 08:25:32;;;;;;;0.30;0.30;;;6.80;99.90;;;;;;4412083;32;20073;-69
2022/04/08 08:28:01;;;;;;;0.30;0.30;;;6.90;99.90;;;;;;4412357;32;20086;-69
2022/04/08 08:30:29;;;;;;;0.70;0.43;;;7.20;99.90;;;;;;4398034;32;20176;-70
2022/04/08 08:32:55;;;;;;;0.32;0.32;;;7.30;99.90;;;;;;4399938;32;20081;-69
2022/04/08 08:35:21;;;;;;;0.37;0.37;;;7.40;99.90;;;;;;4412814;32;20086;-70
2022/04/08 08:37:48;;;;;;;0.30;0.30;;;7.30;99.90;;;;;;4421056;32;20097;-70
2022/04/08 08:40:15;;;;;;;0.40;0.40;;;7.40;99.90;;;;;;4418823;32;20070;-69
2022/04/08 08:42:42;;;;;;;0.88;0.88;;;7.60;99.90;;;;;;4411493;32;20634;-70
2022/04/08 08:45:10;;;;;;;0.55;0.55;;;7.70;99.90;;;;;;4417358;32;20385;-69
2022/04/08 08:47:36;;;;;;;0.77;0.77;;;7.70;99.90;;;;;;4407401;32;21197;-69
2022/04/08 08:50:02;;;;;;;0.30;0.30;;;7.70;99.90;;;;;;4405417;32;20194;-69
2022/04/08 08:52:28;;;;;;;0.37;0.37;;;8.10;99.90;;;;;;4415052;32;20066;-69
2022/04/08 08:54:54;;;;;;;0.22;0.22;;;8.00;99.90;;;;;;4412829;32;20080;-69
2022/04/08 08:57:22;;;;;;;0.30;0.30;;;7.90;99.90;;;;;;4416583;32;20387;-70
2022/04/08 08:59:51;;;;;;;1.45;0.82;;;7.90;99.90;;;;;;4403641;32;20277;-70
2022/04/08 09:02:18;;;;;;;1.65;0.93;;;8.20;99.90;;;;;;4397712;32;20156;-70
2022/04/08 09:04:45;;;;;;;0.57;0.57;;;8.20;99.90;;;;;;4401438;32;20089;-70
2022/04/08 09:07:28;;;;;;;0.43;0.43;;;8.30;99.90;;;;;;4415285;32;20701;-70
2022/04/08 09:09:56;;;;;;;1.27;0.93;;;8.40;99.90;;;;;;4419794;32;20136;-71
2022/04/08 09:12:24;;;;;;;0.30;0.30;;;8.40;99.90;;;;;;4418302;32;20077;-70
2022/04/08 09:14:51;;;;;;;0.37;0.37;;;8.20;99.90;;;;;;4418729;32;20607;-69
2022/04/08 09:17:20;;;;;;;0.22;0.22;;;7.90;99.90;;;;;;4416035;32;20185;-68
2022/04/08 09:19:48;;;;;;;0.30;0.30;;;8.00;99.90;;;;;;4402908;32;20062;-69
2022/04/08 09:22:14;;;;;;;0.28;0.28;;;8.10;99.90;;;;;;4415069;32;20505;-69
2022/04/08 09:24:39;;;;;;;0.57;0.57;;;8.00;99.90;;;;;;4408706;32;20069;-68
2022/04/08 09:27:05;;;;;;;0.30;0.30;;;8.20;99.90;;;;;;4421046;32;20073;-69
2022/04/08 09:29:30;;;;;;;0.30;0.30;;;8.40;99.90;;;;;;4404928;32;20400;-68
2022/04/08 09:31:57;;;;;;;2.35;0.57;;;8.40;99.90;;;;;;4388465;32;20093;-69
2022/04/08 09:34:23;;;;;;;0.30;0.30;;;8.30;99.90;;;;;;4397478;32;20082;-68
2022/04/08 09:36:50;;;;;;;0.40;0.40;;;8.60;99.90;;;;;;4411535;32;20227;-69
2022/04/08 09:39:16;;;;;;;0.30;0.30;;;8.90;99.90;;;;;;4415697;32;20065;-69
2022/04/08 09:41:45;;;;;;;0.32;0.32;;;8.90;99.90;;;;;;4417393;32;20592;-69
2022/04/08 09:44:13;;;;;;;0.30;0.30;;;8.80;99.90;;;;;;4416617;32;20450;-69
2022/04/08 09:46:39;;;;;;;0.45;0.45;;;8.60;99.90;;;;;;4412077;32;20101;-69
2022/04/08 09:49:06;;;;;;;0.50;0.50;;;8.60;99.90;;;;;;4394161;32;20090;-70
2022/04/08 09:51:37;;;;;;;0.73;0.65;;;8.70;99.90;;;;;;4416568;32;20481;-69
2022/04/08 09:54:06;;;;;;;0.57;0.57;;;8.60;99.90;;;;;;4407717;32;20627;-69
2022/04/08 09:56:34;;;;;;;0.40;0.40;;;8.40;99.90;;;;;;4415954;32;20080;-69
2022/04/08 09:59:09;;;;;;;0.40;0.40;;;8.50;99.90;;;;;;4416379;32;20073;-70
2022/04/08 10:01:36;;;;;;;0.40;0.40;;;8.60;99.90;;;;;;4395568;32;20085;-69
2022/04/08 10:04:05;;;;;;;0.30;0.30;;;8.40;99.90;;;;;;4390863;32;20089;-69
2022/04/08 10:06:31;;;;;;;0.30;0.30;;;8.40;99.90;;;;;;4408243;32;20092;-71
2022/04/08 10:08:58;;;;;;;2.55;0.82;;;8.30;99.90;;;;;;4415497;32;20080;-69
2022/04/08 10:11:50;;;;;;;0.30;0.30;;;8.30;99.90;;;;;;4413720;32;20871;-70
2022/04/08 10:14:44;;;;;;;0.30;0.30;;;8.20;99.90;;;;;;4414131;32;20088;-69
2022/04/08 10:17:10;;;;;;;0.30;0.30;;;8.10;99.90;;;;;;4411879;32;20073;-69
2022/04/08 10:19:35;;;;;;;0.60;0.60;;;8.10;99.90;;;;;;4402187;32;20106;-70
2022/04/08 10:22:01;;;;;;;0.25;0.25;;;8.30;99.90;;;;;;4414469;32;20427;-70
2022/04/08 10:24:29;;;;;;;0.30;0.30;;;8.60;99.90;;;;;;4403779;32;20089;-69
2022/04/08 10:27:09;;;;;;;0.60;0.32;;;8.80;99.90;;;;;;4409552;32;20266;-69
2022/04/08 10:29:36;;;;;;;14.38;0.55;;;9.10;99.90;;;;;;4406585;32;20113;-70
2022/04/08 10:32:12;;;;;;;0.30;0.30;;;9.50;99.90;;;;;;4392703;32;20081;-69
2022/04/08 10:34:38;;;;;;;0.40;0.40;;;9.90;99.90;;;;;;4406900;32;20125;-70
2022/04/08 10:37:22;;;;;;;0.30;0.30;;;10.20;99.90;;;;;;4420840;32;20127;-70
2022/04/08 10:40:08;;;;;;;3.90;0.73;;;10.40;99.90;;;;;;4417931;32;20085;-70
2022/04/08 10:42:34;;;;;;;0.30;0.30;;;10.70;99.90;;;;;;4414712;32;20093;-70
2022/04/08 10:45:10;;;;;;;0.47;0.47;;;10.80;99.90;;;;;;4421919;32;20342;-70
2022/04/08 10:47:46;;;;;;;0.30;0.30;;;11.10;99.90;;;;;;4412354;32;20144;-69
2022/04/08 10:50:22;;;;;;;0.60;0.60;;;10.90;99.70;;;;;;4412212;32;20069;-71
2022/04/08 10:52:49;;;;;;;0.25;0.25;;;10.60;99.90;;;;;;4420460;32;20385;-70
2022/04/08 10:55:14;;;;;;;0.30;0.30;;;10.30;99.90;;;;;;4422816;32;20061;-70
2022/04/08 10:57:43;;;;;;;0.30;0.30;;;9.90;99.90;;;;;;4428572;32;20533;-70
2022/04/08 11:00:12;;;;;;;0.40;0.40;;;9.60;99.90;;;;;;4407313;32;20386;-69
2022/04/08 11:02:43;;;;;;;0.62;0.60;;;9.40;99.90;;;;;;4410338;32;20215;-69
2022/04/08 11:05:11;;;;;;;0.30;0.30;;;9.30;99.90;;;;;;4420296;32;20081;-70
2022/04/08 11:07:40;;;;;;;0.20;0.20;;;9.40;99.90;;;;;;4427064;32;20103;-71
2022/04/08 11:10:10;;;;;;;0.30;0.30;;;9.60;99.90;;;;;;4427553;32;20130;-70
2022/04/08 11:12:55;;;;;;;0.73;0.50;;;9.60;99.90;;;;;;4421568;32;20082;-70
2022/04/08 11:15:23;;;;;;;0.30;0.30;;;9.50;99.90;;;;;;4422386;32;20076;-71
2022/04/08 11:17:50;;;;;;;0.30;0.30;;;9.30;99.90;;;;;;4415114;32;20077;-70
2022/04/08 11:20:18;;;;;;;0.20;0.20;;;9.10;99.90;;;;;;4417652;32;20473;-70
2022/04/08 11:22:45;;;;;;;0.68;0.60;;;9.10;99.90;;;;;;4418026;32;20085;-70
2022/04/08 11:25:29;;;;;;;0.32;0.32;;;8.90;99.90;;;;;;4418498;32;20148;-70
2022/04/08 11:28:01;;;;;;;0.40;0.40;;;9.00;99.90;;;;;;4423484;32;20309;-70
2022/04/08 11:30:39;;;;;;;0.30;0.30;;;9.10;99.90;;;;;;4401508;32;20146;-70
2022/04/08 11:33:20;;;;;;;0.40;0.40;;;9.60;99.90;;;;;;4403302;32;20074;-69
2022/04/08 11:35:46;;;;;;;;;;;10.40;99.90;;;;;;4418306;32;20152;-70
2022/04/08 11:38:14;;;;;;;0.32;0.32;;;10.70;99.90;;;;;;4419539;32;19961;-70
2022/04/08 11:40:40;;;;;;;0.50;0.50;;;11.20;99.90;;;;;;4418181;32;20061;-70
2022/04/08 11:43:05;;;;;;;0.45;0.45;;;11.60;99.90;;;;;;4421715;32;20114;-71
2022/04/08 11:45:31;;;;;;;2.10;0.82;;;11.50;98.80;;;;;;4423330;32;20155;-70
2022/04/08 11:47:56;;;;;;;0.88;0.85;;;11.60;97.90;;;;;;4411235;32;20359;-70
2022/04/08 11:50:25;;;;;;;0.30;0.30;;;11.50;98.60;;;;;;4420043;32;20081;-70
2022/04/08 11:52:55;;;;;;;0.35;0.35;;;11.60;98.10;;;;;;4421016;32;20073;-71
2022/04/08 11:55:24;;;;;;;0.85;0.85;;;10.80;98.70;;;;;;4420742;32;20078;-71
2022/04/08 11:57:50;;;;;;;1.08;0.85;;;10.20;99.10;;;;;;4425695;32;20152;-70
2022/04/08 12:00:16;;;;;;;8.05;2.05;;;10.00;99.80;;;;;;4407603;32;20114;-70
2022/04/08 12:02:41;;;;;;;0.30;0.30;;;9.90;99.90;;;;;;4400692;32;20268;-67
2022/04/08 12:05:08;;;;;;;1.92;0.98;;;9.70;99.90;;;;;;4416671;32;20410;-67
2022/04/08 12:07:41;;;;;;;0.30;0.30;;;9.70;99.90;;;;;;4425555;32;20077;-68
2022/04/08 12:10:09;;;;;;;0.40;0.40;;;9.70;99.90;;;;;;4430553;32;20093;-67
2022/04/08 12:12:35;;;;;;;0.20;0.20;;;9.70;99.90;;;;;;4428375;32;20069;-67
2022/04/08 12:15:08;;;;;;;1.27;0.50;;;9.70;99.90;;;;;;4428584;32;20568;-67
2022/04/08 12:17:43;;;;;;;0.28;0.28;;;9.50;99.90;;;;;;4420286;32;20078;-66
2022/04/08 12:20:14;;;;;;;0.30;0.30;;;9.50;99.90;;;;;;4420291;32;20066;-69
2022/04/08 12:22:40;;;;;;;0.50;0.47;;;9.50;99.90;;;;;;4422256;32;20130;-67
2022/04/08 12:25:07;;;;;;;0.30;0.30;;;9.50;99.90;;;;;;4427174;32;20225;-69
2022/04/08 12:27:32;;;;;;;0.40;0.40;;;9.50;99.90;;;;;;4436457;32;20073;-69
2022/04/08 12:30:00;;;;;;;0.62;0.62;;;9.70;99.90;;;;;;4420821;32;20650;-68
2022/04/08 12:32:33;;;;;;;0.30;0.30;;;9.80;99.90;;;;;;4415575;32;20239;-68
2022/04/08 12:34:59;;;;;;;0.30;0.30;;;10.10;99.90;;;;;;4422755;32;20080;-68
2022/04/08 12:37:24;;;;;;;0.47;0.47;;;10.30;99.90;;;;;;4428557;32;20098;-68
2022/04/08 12:39:55;;;;;;;0.57;0.57;;;10.40;99.90;;;;;;4428625;32;20074;-69
2022/04/08 12:42:21;;;;;;;6.55;0.50;;;10.80;99.70;;;;;;4422436;32;20105;-68
2022/04/08 12:44:46;;;;;;;0.40;0.40;;;10.60;99.40;;;;;;4429760;32;20885;-68
2022/04/08 12:47:12;;;;;;;1.35;0.90;;;10.30;99.90;;;;;;4428800;32;20101;-68
2022/04/08 12:49:37;;;;;;;0.40;0.40;;;10.40;99.90;;;;;;4417409;32;20069;-68
2022/04/08 12:52:04;;;;;;;0.40;0.40;;;10.60;99.90;;;;;;4428376;32;20094;-69
2022/04/08 12:54:30;;;;;;;0.40;0.40;;;10.80;99.90;;;;;;4426622;32;20582;-68